Terminal Aerodrome Forecast
Issued by NWS

Home | Current Version | Previous Version | Text Only | Print | Product List | Glossary On
Versions: 1 2 3 4 5 6 7 8 9 10 11 12 13 14 15 16 17 18 19 20
601
FTUS43 KSGF 192325
TAFJLN
TAF
KJLN 192325Z 2000/2024 17006KT P6SM SCT250
     FM200600 15009KT P6SM VCSH OVC040
     FM200900 16011KT 6SM -SHRA OVC040
     FM201600 18010KT 5SM -TSRA OVC015CB
     FM202000 20010KT P6SM OVC035=

USA.gov is the U.S. government's official web portal to all federal, state and local government web resources and services.